N289R KPDK-KMAC
Flight info
| Callsign | N289R |
|---|---|
| Flight time | 0h 33m |
| Altitude | 7000 |
| Route | SOONE |
| Aircraft | C208/L-SDFGR/C |
Departure
| Time | 2026-05-07 01:51 |
|---|---|
| Airport | DeKalb Peachtree Airport (KPDK) |
Arrival
| Time | 2026-05-07 02:24 |
|---|---|
| Airport | Macon Downtown Airport (KMAC) |
| Time | Latitude | Longitude | Altitude | Speed | Heading |
|---|---|---|---|---|---|
| 2026-05-07 01:40 | 33.87968 | -84.30517 | 993 ft | 0 kts | 240° |
| 2026-05-07 01:47 | 33.87967 | -84.30521 | 993 ft | 3 kts | 240° |
| 2026-05-07 01:47 | 33.87946 | -84.30501 | 993 ft | 5 kts | 62° |
| 2026-05-07 01:48 | 33.87948 | -84.30495 | 993 ft | 0 kts | 62° |
| 2026-05-07 01:49 | 33.87955 | -84.30480 | 993 ft | 3 kts | 63° |
| 2026-05-07 01:49 | 33.87897 | -84.30432 | 995 ft | 12 kts | 156° |
| 2026-05-07 01:49 | 33.87801 | -84.30383 | 997 ft | 5 kts | 157° |
| 2026-05-07 01:49 | 33.87839 | -84.30279 | 998 ft | 19 kts | 47° |
| 2026-05-07 01:50 | 33.87876 | -84.30236 | 1000 ft | 11 kts | 58° |
| 2026-05-07 01:50 | 33.87866 | -84.30160 | 1005 ft | 0 kts | 109° |
| 2026-05-07 01:50 | 33.87850 | -84.30142 | 1005 ft | 19 kts | 161° |
| 2026-05-07 01:50 | 33.87472 | -84.30299 | 1011 ft | 103 kts | 201° |
| 2026-05-07 01:51 | 33.86742 | -84.30613 | 1443 ft | 115 kts | 202° |
| 2026-05-07 01:51 | 33.85963 | -84.30873 | 1892 ft | 116 kts | 201° |
| 2026-05-07 01:51 | 33.85226 | -84.31157 | 2441 ft | 108 kts | 204° |
| 2026-05-07 01:51 | 33.84501 | -84.31428 | 2873 ft | 111 kts | 204° |
| 2026-05-07 01:52 | 33.83762 | -84.31744 | 3240 ft | 115 kts | 208° |
| 2026-05-07 01:52 | 33.83009 | -84.32091 | 3662 ft | 116 kts | 208° |
| 2026-05-07 01:52 | 33.82261 | -84.32459 | 4078 ft | 116 kts | 208° |
| 2026-05-07 01:52 | 33.81497 | -84.32873 | 4328 ft | 125 kts | 214° |
| 2026-05-07 01:53 | 33.80676 | -84.33132 | 4822 ft | 128 kts | 201° |
| 2026-05-07 01:53 | 33.79720 | -84.33476 | 4694 ft | 155 kts | 204° |
| 2026-05-07 01:53 | 33.78694 | -84.33875 | 4743 ft | 155 kts | 203° |
| 2026-05-07 01:53 | 33.77687 | -84.34277 | 4792 ft | 151 kts | 204° |
| 2026-05-07 01:54 | 33.76680 | -84.34675 | 4840 ft | 151 kts | 204° |
| 2026-05-07 01:54 | 33.75721 | -84.35066 | 4870 ft | 140 kts | 204° |
| 2026-05-07 01:54 | 33.74825 | -84.35405 | 4932 ft | 132 kts | 204° |
| 2026-05-07 01:54 | 33.73947 | -84.35717 | 4999 ft | 130 kts | 204° |
| 2026-05-07 01:55 | 33.73081 | -84.36013 | 5008 ft | 128 kts | 204° |
| 2026-05-07 01:55 | 33.72227 | -84.36302 | 5008 ft | 127 kts | 202° |
| 2026-05-07 01:55 | 33.71657 | -84.36502 | 5008 ft | 126 kts | 202° |
| 2026-05-07 01:55 | 33.70546 | -84.36909 | 5010 ft | 128 kts | 204° |
| 2026-05-07 01:56 | 33.69971 | -84.37113 | 5013 ft | 127 kts | 204° |
| 2026-05-07 01:56 | 33.69114 | -84.37400 | 5017 ft | 129 kts | 204° |
| 2026-05-07 01:56 | 33.68246 | -84.37695 | 5012 ft | 130 kts | 204° |
| 2026-05-07 01:56 | 33.67380 | -84.37999 | 5004 ft | 129 kts | 204° |
| 2026-05-07 01:57 | 33.66534 | -84.38301 | 5004 ft | 128 kts | 204° |
| 2026-05-07 01:57 | 33.65682 | -84.38608 | 5006 ft | 128 kts | 204° |
| 2026-05-07 01:57 | 33.64834 | -84.38905 | 5008 ft | 127 kts | 204° |
| 2026-05-07 01:57 | 33.63989 | -84.39209 | 5009 ft | 127 kts | 204° |
| 2026-05-07 01:58 | 33.63138 | -84.39506 | 5008 ft | 128 kts | 204° |
| 2026-05-07 01:58 | 33.62287 | -84.39803 | 5009 ft | 128 kts | 204° |
| 2026-05-07 01:58 | 33.61431 | -84.40095 | 5007 ft | 128 kts | 204° |
| 2026-05-07 01:58 | 33.60576 | -84.40386 | 5007 ft | 128 kts | 204° |
| 2026-05-07 01:59 | 33.59714 | -84.40677 | 5006 ft | 129 kts | 204° |
| 2026-05-07 01:59 | 33.58855 | -84.40970 | 5006 ft | 128 kts | 204° |
| 2026-05-07 01:59 | 33.57998 | -84.41259 | 5005 ft | 128 kts | 204° |
| 2026-05-07 01:59 | 33.57141 | -84.41558 | 5013 ft | 129 kts | 204° |
| 2026-05-07 02:00 | 33.56276 | -84.41856 | 5014 ft | 130 kts | 203° |
| 2026-05-07 02:00 | 33.55415 | -84.42163 | 4998 ft | 128 kts | 204° |
| 2026-05-07 02:00 | 33.54568 | -84.42487 | 5000 ft | 127 kts | 204° |
| 2026-05-07 02:00 | 33.53721 | -84.42807 | 5001 ft | 128 kts | 204° |
| 2026-05-07 02:01 | 33.52900 | -84.43113 | 5146 ft | 119 kts | 204° |
| 2026-05-07 02:01 | 33.52131 | -84.43392 | 5311 ft | 113 kts | 204° |
| 2026-05-07 02:01 | 33.51390 | -84.43645 | 5479 ft | 110 kts | 204° |
| 2026-05-07 02:01 | 33.50620 | -84.43661 | 5638 ft | 118 kts | 175° |
| 2026-05-07 02:02 | 33.49902 | -84.43100 | 5803 ft | 132 kts | 143° |
| 2026-05-07 02:02 | 33.49285 | -84.42284 | 5976 ft | 132 kts | 143° |
| 2026-05-07 02:02 | 33.48664 | -84.41473 | 6150 ft | 132 kts | 144° |
| 2026-05-07 02:02 | 33.48044 | -84.40665 | 6322 ft | 132 kts | 143° |
| 2026-05-07 02:03 | 33.47423 | -84.39858 | 6492 ft | 132 kts | 144° |
| 2026-05-07 02:03 | 33.46804 | -84.39055 | 6653 ft | 130 kts | 144° |
| 2026-05-07 02:03 | 33.46191 | -84.38260 | 6818 ft | 130 kts | 144° |
| 2026-05-07 02:03 | 33.45579 | -84.37466 | 6981 ft | 133 kts | 144° |
| 2026-05-07 02:04 | 33.44921 | -84.36621 | 7041 ft | 145 kts | 144° |
| 2026-05-07 02:04 | 33.44217 | -84.35718 | 7040 ft | 151 kts | 144° |
| 2026-05-07 02:04 | 33.43481 | -84.34789 | 7044 ft | 155 kts | 143° |
| 2026-05-07 02:04 | 33.42741 | -84.33837 | 7048 ft | 157 kts | 143° |
| 2026-05-07 02:05 | 33.41996 | -84.32872 | 7048 ft | 158 kts | 142° |
| 2026-05-07 02:05 | 33.41250 | -84.31903 | 7045 ft | 158 kts | 143° |
| 2026-05-07 02:05 | 33.40505 | -84.30939 | 7043 ft | 157 kts | 143° |
| 2026-05-07 02:05 | 33.39762 | -84.29974 | 7045 ft | 158 kts | 143° |
| 2026-05-07 02:06 | 33.38988 | -84.28980 | 7057 ft | 168 kts | 142° |
| 2026-05-07 02:06 | 33.38175 | -84.27925 | 7054 ft | 176 kts | 141° |
| 2026-05-07 02:06 | 33.37338 | -84.26841 | 7051 ft | 179 kts | 141° |
| 2026-05-07 02:06 | 33.36488 | -84.25739 | 7045 ft | 181 kts | 141° |
| 2026-05-07 02:07 | 33.35627 | -84.24626 | 7056 ft | 183 kts | 141° |
| 2026-05-07 02:07 | 33.33903 | -84.22395 | 7042 ft | 182 kts | 141° |
| 2026-05-07 02:07 | 33.33049 | -84.21291 | 7042 ft | 182 kts | 141° |
| 2026-05-07 02:08 | 33.32191 | -84.20184 | 7044 ft | 182 kts | 141° |
| 2026-05-07 02:08 | 33.31332 | -84.19075 | 7045 ft | 182 kts | 141° |
| 2026-05-07 02:08 | 33.30475 | -84.17968 | 7044 ft | 181 kts | 141° |
| 2026-05-07 02:08 | 33.29620 | -84.16865 | 7039 ft | 180 kts | 141° |
| 2026-05-07 02:09 | 33.28771 | -84.15769 | 7039 ft | 180 kts | 141° |
| 2026-05-07 02:09 | 33.27921 | -84.14674 | 7038 ft | 180 kts | 142° |
| 2026-05-07 02:09 | 33.27069 | -84.13576 | 7035 ft | 180 kts | 141° |
| 2026-05-07 02:09 | 33.26216 | -84.12478 | 7034 ft | 180 kts | 141° |
| 2026-05-07 02:10 | 33.25363 | -84.11377 | 7033 ft | 181 kts | 141° |
| 2026-05-07 02:10 | 33.24511 | -84.10281 | 7031 ft | 180 kts | 141° |
| 2026-05-07 02:10 | 33.23662 | -84.09187 | 7029 ft | 180 kts | 141° |
| 2026-05-07 02:10 | 33.22810 | -84.08092 | 7025 ft | 180 kts | 141° |
| 2026-05-07 02:11 | 33.21957 | -84.06993 | 7024 ft | 181 kts | 141° |
| 2026-05-07 02:11 | 33.21102 | -84.05894 | 7021 ft | 181 kts | 141° |
| 2026-05-07 02:11 | 33.20246 | -84.04793 | 7019 ft | 181 kts | 141° |
| 2026-05-07 02:11 | 33.19390 | -84.03692 | 7018 ft | 181 kts | 141° |
| 2026-05-07 02:12 | 33.18534 | -84.02591 | 7016 ft | 181 kts | 141° |
| 2026-05-07 02:12 | 33.17677 | -84.01492 | 7013 ft | 181 kts | 140° |
| 2026-05-07 02:12 | 33.16818 | -84.00389 | 7013 ft | 181 kts | 141° |
| 2026-05-07 02:12 | 33.15960 | -83.99287 | 7012 ft | 181 kts | 141° |
| 2026-05-07 02:13 | 33.15102 | -83.98183 | 7012 ft | 181 kts | 141° |
| 2026-05-07 02:13 | 33.14244 | -83.97084 | 7013 ft | 180 kts | 141° |
| 2026-05-07 02:13 | 33.13393 | -83.95991 | 7012 ft | 179 kts | 142° |
| 2026-05-07 02:13 | 33.12542 | -83.94900 | 7015 ft | 180 kts | 141° |
| 2026-05-07 02:14 | 33.11690 | -83.93810 | 7010 ft | 180 kts | 141° |
| 2026-05-07 02:14 | 33.10838 | -83.92716 | 7011 ft | 180 kts | 141° |
| 2026-05-07 02:14 | 33.09985 | -83.91624 | 7011 ft | 179 kts | 142° |
| 2026-05-07 02:14 | 33.09133 | -83.90533 | 7008 ft | 180 kts | 142° |
| 2026-05-07 02:15 | 33.08279 | -83.89440 | 7009 ft | 180 kts | 142° |
| 2026-05-07 02:15 | 33.07423 | -83.88344 | 7009 ft | 181 kts | 141° |
| 2026-05-07 02:15 | 33.06565 | -83.87246 | 7009 ft | 181 kts | 141° |
| 2026-05-07 02:15 | 33.05705 | -83.86147 | 7018 ft | 181 kts | 141° |
| 2026-05-07 02:16 | 33.04866 | -83.85073 | 6865 ft | 172 kts | 142° |
| 2026-05-07 02:16 | 33.04054 | -83.84036 | 6727 ft | 170 kts | 142° |
| 2026-05-07 02:16 | 33.03252 | -83.83016 | 6530 ft | 172 kts | 142° |
| 2026-05-07 02:16 | 33.02438 | -83.81977 | 6309 ft | 171 kts | 141° |
| 2026-05-07 02:17 | 33.01626 | -83.80941 | 6056 ft | 171 kts | 141° |
| 2026-05-07 02:17 | 33.00818 | -83.79908 | 5791 ft | 171 kts | 141° |
| 2026-05-07 02:17 | 33.00010 | -83.78879 | 5430 ft | 169 kts | 141° |
| 2026-05-07 02:17 | 32.99215 | -83.77864 | 5096 ft | 166 kts | 141° |
| 2026-05-07 02:18 | 32.98433 | -83.76867 | 4762 ft | 163 kts | 141° |
| 2026-05-07 02:18 | 32.97662 | -83.75883 | 4419 ft | 161 kts | 141° |
| 2026-05-07 02:18 | 32.96900 | -83.74913 | 4071 ft | 159 kts | 142° |
| 2026-05-07 02:18 | 32.96151 | -83.73957 | 3734 ft | 157 kts | 141° |
| 2026-05-07 02:19 | 32.95409 | -83.73012 | 3396 ft | 156 kts | 141° |
| 2026-05-07 02:19 | 32.94671 | -83.72073 | 3056 ft | 156 kts | 140° |
| 2026-05-07 02:19 | 32.93976 | -83.71180 | 3013 ft | 138 kts | 139° |
| 2026-05-07 02:19 | 32.93351 | -83.70377 | 3013 ft | 128 kts | 141° |
| 2026-05-07 02:20 | 32.92709 | -83.69571 | 3016 ft | 141 kts | 141° |
| 2026-05-07 02:20 | 32.92018 | -83.68690 | 3021 ft | 150 kts | 141° |
| 2026-05-07 02:20 | 32.91291 | -83.67765 | 3017 ft | 155 kts | 142° |
| 2026-05-07 02:20 | 32.90554 | -83.66825 | 3024 ft | 155 kts | 140° |
| 2026-05-07 02:21 | 32.89818 | -83.65883 | 3016 ft | 155 kts | 141° |
| 2026-05-07 02:21 | 32.89086 | -83.64955 | 3019 ft | 153 kts | 140° |
| 2026-05-07 02:21 | 32.88362 | -83.64035 | 3022 ft | 152 kts | 140° |
| 2026-05-07 02:21 | 32.87809 | -83.62946 | 3019 ft | 155 kts | 122° |
| 2026-05-07 02:22 | 32.87322 | -83.61800 | 3015 ft | 154 kts | 122° |
| 2026-05-07 02:22 | 32.86843 | -83.60657 | 3036 ft | 153 kts | 123° |
| 2026-05-07 02:22 | 32.86311 | -83.59602 | 2563 ft | 148 kts | 135° |
| 2026-05-07 02:22 | 32.85591 | -83.58736 | 1960 ft | 148 kts | 145° |
| 2026-05-07 02:23 | 32.84806 | -83.58028 | 1534 ft | 132 kts | 148° |
| 2026-05-07 02:23 | 32.84121 | -83.57445 | 1269 ft | 108 kts | 153° |
| 2026-05-07 02:23 | 32.83534 | -83.57009 | 1023 ft | 89 kts | 158° |
| 2026-05-07 02:23 | 32.83020 | -83.56691 | 657 ft | 79 kts | 149° |
| 2026-05-07 02:24 | 32.82587 | -83.56313 | 494 ft | 75 kts | 155° |
| 2026-05-07 02:24 | 32.82179 | -83.56003 | 444 ft | 65 kts | 156° |
| 2026-05-07 02:24 | 32.81990 | -83.55863 | 434 ft | 13 kts | 194° |